Terminal Aerodrome Forecast
Issued by NWS Austin/San Antonio, TX

Home | Current Version | Previous Version | Text Only | Print | Product List | Glossary On
Versions: 1 2 3 4 5 6 7 8 9 10 11 12 13 14 15 16 17 18
000
FTUS44 KEWX 301500 AAC
TAFSAT
TAF AMD
KSAT 301546Z 3016/3118 10004KT P6SM SCT025
      TEMPO 3016/3017 BKN030
     FM301700 11008KT P6SM SCT035 SCT100
     FM310600 15005KT P6SM BKN010=

USA.gov is the U.S. government's official web portal to all federal, state and local government web resources and services.